Aviation Digital Data Service (ADDS)

Output produced by METARs form (0708 UTC 20 March 2019)
found at http://www.aviationweather.gov/metar/data/
 
Forecast for: ETND (DIEPHOLZ (GER-AF, DE)
Text: TAF ETND 200500Z 2006/2015 20006KT 9999 NSW SCT050 BKN100
Forecast period: 0600 to 1000 UTC 20 March 2019
Forecast type: FROM: standard forecast or significant change
Winds: from the SSW (200 degrees) at 7 MPH (6 knots; 3.1 m/s)
Visibility: 6 or more miles 10+ km)
Ceiling: 10000 feet AGL
Clouds: scattered clouds at 5000 feet AGL
broken clouds at 10000 feet AGL
Weather: NSW  (no significant weather)
Text: BECMG 2010/2012 23010KT 8000 NSW SCT010 BKN015
Forecast period: 1000 to 1500 UTC 20 March 2019
Forecast type: BECOMING: Conditions expected to become as follows by 1200 UTC 20 March 2019
Winds: from the SW (230 degrees) at 12 MPH (10 knots; 5.1 m/s)
Visibility: 5 miles (8 km)
Ceiling: 1500 feet AGL
Clouds: scattered clouds at 1000 feet AGL
broken clouds at 1500 feet AGL
Weather: NSW  (no significant weather)
Text: TEMPO 2011/2015 25010KT 5000 BR SCT005 BKN010 BY ETGL
Forecast period: 1100 to 1500 UTC 20 March 2019
Forecast type: TEMPORARY: The following changes expected for less than half the time period
Winds: from the WSW (250 degrees) at 12 MPH (10 knots; 5.1 m/s)
Visibility: 3 miles (5 km)
Ceiling: 1000 feet AGL
Clouds: scattered clouds at 500 feet AGL
broken clouds at 1000 feet AGL
Weather: BR  (mist)